McLouth, KS

5:14 PM CDT on April 29, 2017 (GMT -0500)
Jefferson County | | Change Station

Elev 1138 ft 39.19 °N, 95.24 °W | Updated 3 minutes ago

Rain
Rain
47.1 °F
Feels Like 47 °F
N
-
Wind Variable Wind from North

Today
High -- | Low -- °F
--% Chance of Precip.
Yesterday
High -- | Low -- °F
Precip. -- in
Pressure 29.83 in
Visibility 10.0 miles
Clouds Overcast 800 ft
Windchill 47 °F
Dew Point 47 °F
Humidity 99%
Rainfall Not available.
Snow Depth Not available.
6:24 AM 8:12 PM
Waxing Crescent, 17% visible
METAR KLWC 292152Z AUTO 29007G17KT 10SM -RA OVC008 10/09 A2982 RMK AO2 SLP100 P0003 T01000094
Pressure 29.83 in
Visibility 10.0 miles
Clouds Overcast 800 ft
Windchill 47 °F
Dew Point 47 °F
Humidity 99%
Rainfall Not available.
Snow Depth Not available.
6:24 AM 8:12 PM
Waxing Crescent, 17% visible
METAR KLWC 292152Z AUTO 29007G17KT 10SM -RA OVC008 10/09 A2982 RMK AO2 SLP100 P0003 T01000094

Get Severe Weather Alerts

Thanks for signing up!

Be on the lookout for a verification email in your inbox.

You'll start receiving the daily forecast at 8 AM.

×

10-Day Weather Forecast

Almanac

Astronomy

Apr. 29, 2017 Rise Set
Actual Time
Civil Twilight
Nautical Twilight
Astronomical Twilight
Moon
Length of Visible Light
Length of Day
Tomorrow will be .
, % of the Moon is Illuminated

Today's Extremes

State Highs State Lows

Community

WunderPhotos

WunderBlog® & News

Nearby

Air Quality

  Air Quality AQ Index Pollutant
Not available.

Snow Depth

Station Depth Elevation

Earthquake Activity

City Distance Mag. Time & Date
Minimum magnitude displayed is 2.5.

Coastal Water Temperatures

Place Temperature

Stations

Nearby Weather Stations

Station Location Temp. Windchill Dew Point Humidity Wind Precip. Elev Updated Type
                   

Watches & Warnings

There are currently no watches in effect.